.
WxDataArchive / Data Records for 2007-05-30
2007-05-29 May 2007 2007-05-31

Data Records for Wednesday, 30 May 2007

Time	Temp	Chill	HIndex	Humid	Dewpt	 Wind 	HiWind	WindDir	Rain 	Barom 
-----	----	-----	------	-----	-----	------	------	-------	-----	----- 
00:00	71.5	71.5	71.5	69	60.8	0	0	---	0.00	30.076 
00:05	71.3	71.3	71.3	70	61.0	0	0	---	0.00	30.077 
00:10	71.1	71.1	71.1	70	60.8	0	0	---	0.00	30.077 
00:15	70.9	70.9	70.9	71	61.0	0	0	---	0.00	30.078 
00:20	70.8	70.8	70.8	71	60.9	0	0	---	0.00	30.080 
00:25	70.8	70.8	70.8	72	61.3	0	0	---	0.00	30.083 
00:30	70.6	70.6	70.6	72	61.1	0	1	90	0.00	30.087 
00:35	70.6	70.6	70.6	72	61.1	0	0	---	0.00	30.088 
00:40	70.4	70.4	70.4	72	60.9	0	1	90	0.00	30.088 
00:45	70.3	70.3	70.3	73	61.2	0	1	90	0.00	30.087 
00:50	70.1	70.1	70.1	73	61.0	0	0	---	0.00	30.088 
00:55	69.8	69.8	69.8	74	61.1	0	0	---	0.00	30.087 
01:00	69.6	69.6	69.6	74	60.9	0	0	---	0.00	30.084 
01:05	69.4	69.4	69.4	74	60.7	0	0	---	0.00	30.086 
01:10	69.3	69.3	69.3	74	60.6	0	0	---	0.00	30.086 
01:15	69.1	69.1	69.1	75	60.8	0	0	---	0.00	30.083 
01:20	68.9	68.9	68.9	75	60.6	0	0	---	0.00	30.082 
01:25	68.8	68.8	68.8	76	60.9	0	0	---	0.00	30.080 
01:30	68.4	68.4	68.4	77	60.9	0	0	---	0.00	30.079 
01:35	68.3	68.3	68.3	77	60.8	0	1	90	0.00	30.079 
01:40	68.1	68.1	68.1	77	60.6	0	1	90	0.00	30.079 
01:45	68.1	68.1	68.1	78	61.0	0	1	90	0.00	30.077 
01:50	67.9	67.9	67.9	78	60.8	0	1	90	0.00	30.078 
01:55	67.8	67.8	67.8	78	60.7	0	0	---	0.00	30.078 
02:00	67.8	67.8	67.8	79	61.0	0	0	---	0.00	30.077 
02:05	67.6	67.6	67.6	79	60.8	0	0	---	0.00	30.075 
02:10	67.3	67.3	67.3	79	60.6	0	0	---	0.00	30.075 
02:15	67.1	67.1	67.1	80	60.7	0	0	---	0.00	30.075 
02:20	66.9	66.9	66.9	81	60.9	0	0	---	0.00	30.074 
02:25	66.8	66.8	66.8	82	61.1	0	0	---	0.00	30.074 
02:30	66.8	66.8	66.8	83	61.5	0	0	---	0.00	30.074 
02:35	66.6	66.6	66.6	84	61.6	0	0	---	0.00	30.073 
02:40	66.4	66.4	66.4	85	61.7	0	0	---	0.00	30.074 
02:45	66.3	66.3	66.3	85	61.6	0	0	---	0.00	30.075 
02:50	66.0	66.0	66.0	85	61.4	0	0	---	0.00	30.075 
02:55	65.8	65.8	65.8	86	61.5	0	0	---	0.00	30.074 
03:00	65.6	65.6	65.6	86	61.3	0	0	---	0.00	30.075 
03:05	65.6	65.6	65.6	87	61.6	0	0	---	0.00	30.076 
03:10	65.5	65.5	65.5	87	61.5	0	0	---	0.00	30.077 
03:15	65.5	65.5	65.5	87	61.5	0	0	---	0.00	30.078 
03:20	65.3	65.3	65.3	87	61.3	0	1	90	0.00	30.077 
03:25	65.2	65.2	65.2	86	60.9	0	0	---	0.00	30.077 
03:30	65.0	65.0	65.0	85	60.4	0	0	---	0.00	30.077 
03:35	65.0	65.0	65.0	85	60.4	0	0	---	0.00	30.077 
03:40	65.0	65.0	65.0	85	60.4	0	0	---	0.00	30.077 
03:45	65.0	65.0	65.0	85	60.4	0	0	---	0.00	30.078 
03:50	65.0	65.0	65.0	85	60.4	0	0	---	0.00	30.078 
03:55	64.8	64.8	64.8	85	60.2	0	0	---	0.00	30.079 
04:00	64.7	64.7	64.7	86	60.4	0	0	---	0.00	30.079 
04:05	64.5	64.5	64.5	86	60.2	0	0	---	0.00	30.081 
04:10	64.3	64.3	64.3	86	60.0	0	0	---	0.00	30.081 
04:15	64.2	64.2	64.2	86	59.9	0	0	---	0.00	30.081 
04:20	64.0	64.0	64.0	87	60.0	0	0	---	0.00	30.082 
04:25	63.9	63.9	63.9	88	60.3	0	0	---	0.00	30.082 
04:30	63.7	63.7	63.7	88	60.1	0	0	---	0.00	30.082 
04:35	63.5	63.5	63.5	88	59.9	0	0	---	0.00	30.083 
04:40	63.4	63.4	63.4	88	59.8	0	0	---	0.00	30.085 
04:45	63.2	63.2	63.2	89	59.9	0	0	---	0.00	30.084 
04:50	63.1	63.1	63.1	89	59.8	0	0	---	0.00	30.084 
04:55	63.1	63.1	63.1	90	60.1	0	0	---	0.00	30.084 
05:00	62.9	62.9	62.9	90	59.9	0	0	---	0.00	30.085 
05:05	62.9	62.9	62.9	90	59.9	0	0	---	0.00	30.086 
05:10	62.7	62.7	62.7	91	60.0	0	0	---	0.00	30.084 
05:15	62.7	62.7	62.7	91	60.0	0	0	---	0.00	30.085 
05:20	62.6	62.6	62.6	91	59.9	0	0	---	0.00	30.086 
05:25	62.6	62.6	62.6	92	60.2	0	0	---	0.00	30.089 
05:30	62.6	62.6	62.6	92	60.2	0	0	---	0.00	30.086 
05:35	62.6	62.6	62.6	92	60.2	0	0	---	0.00	30.087 
05:40	62.4	62.4	62.4	92	60.0	0	0	---	0.00	30.088 
05:45	62.4	62.4	62.4	92	60.0	0	0	---	0.00	30.091 
05:50	62.4	62.4	62.4	92	60.0	0	0	---	0.00	30.094 
05:55	62.6	62.6	62.6	92	60.2	0	0	---	0.00	30.096 
06:00	62.7	62.7	62.7	92	60.3	0	0	---	0.00	30.096 
06:05	62.7	62.7	62.7	92	60.3	0	0	---	0.00	30.098 
06:10	63.1	63.1	63.1	92	60.7	0	0	---	0.00	30.097 
06:15	63.2	63.2	63.2	92	60.8	0	0	---	0.00	30.099 
06:20	63.5	63.5	63.5	92	61.1	0	0	---	0.00	30.097 
06:25	63.9	63.9	63.9	92	61.5	0	0	---	0.00	30.097 
06:30	64.3	64.3	64.3	92	61.9	0	0	---	0.00	30.097 
06:35	65.0	65.0	65.0	91	62.3	0	0	---	0.00	30.098 
06:40	65.5	65.5	65.5	89	62.2	0	0	---	0.00	30.098 
06:45	66.1	66.1	66.1	86	61.8	0	0	---	0.00	30.096 
06:50	67.1	67.1	67.1	82	61.4	0	1	90	0.00	30.098 
06:55	67.9	67.9	67.9	79	61.1	0	1	90	0.00	30.098 
07:00	68.8	68.8	68.8	79	62.0	0	0	---	0.00	30.100 
07:05	69.6	69.6	69.6	77	62.1	0	0	---	0.00	30.103 
07:10	70.3	70.3	70.3	75	62.0	0	1	90	0.00	30.105 
07:15	71.1	71.1	71.1	75	62.8	0	1	90	0.00	30.105 
07:20	71.5	71.5	71.5	74	62.8	0	1	90	0.00	30.106 
07:25	71.8	71.8	71.8	73	62.7	0	0	---	0.00	30.105 
07:30	72.3	72.3	72.3	71	62.4	0	0	---	0.00	30.103 
07:35	72.8	72.8	72.8	71	62.8	0	1	90	0.00	30.102 
07:40	73.5	73.5	73.5	70	63.1	0	2	90	0.00	30.103 
07:45	74.0	74.0	74.0	68	62.8	0	2	90	0.00	30.102 
07:50	74.4	74.4	74.4	68	63.1	0	1	90	0.00	30.103 
07:55	74.9	74.9	74.9	67	63.2	0	2	90	0.00	30.102 
08:00	75.1	75.1	77.0	67	63.4	1	2	90	0.00	30.103 
08:05	75.4	75.4	77.3	66	63.2	0	1	90	0.00	30.106 
08:10	76.0	76.0	77.9	65	63.4	0	2	90	0.00	30.103 
08:15	76.1	76.1	78.0	64	63.0	1	2	90	0.00	30.103 
08:20	76.5	76.5	78.3	64	63.4	0	1	90	0.00	30.101 
08:25	77.2	77.2	79.0	64	64.1	0	1	90	0.00	30.100 
08:30	77.6	77.6	79.4	62	63.5	0	1	90	0.00	30.098 
08:35	77.6	77.6	79.4	62	63.5	1	2	90	0.00	30.098 
08:40	77.6	77.6	79.4	62	63.5	0	1	90	0.00	30.098 
08:45	78.5	78.5	80.3	62	64.4	0	2	90	0.00	30.099 
08:50	79.0	79.0	80.8	61	64.4	0	2	90	0.00	30.099 
08:55	79.6	79.6	81.3	60	64.5	0	1	90	0.00	30.097 
09:00	80.5	80.5	82.2	58	64.3	1	2	90	0.00	30.094 
09:05	81.1	81.1	83.5	62	66.8	0	2	90	0.00	30.094 
09:10	81.6	81.6	83.5	58	65.4	0	2	90	0.00	30.094 
09:15	82.0	82.0	83.9	57	65.2	1	2	90	0.00	30.093 
09:20	82.2	82.2	84.0	56	64.9	0	2	90	0.00	30.093 
09:25	82.6	82.6	84.5	56	65.3	1	2	90	0.00	30.093 
09:30	83.0	83.0	85.1	56	65.7	1	2	90	0.00	30.091 
09:35	83.4	83.4	85.2	54	65.0	1	3	90	0.00	30.090 
09:40	83.6	83.6	85.7	55	65.7	1	3	90	0.00	30.089 
09:45	83.6	83.6	85.5	54	65.2	1	3	90	0.00	30.089 
09:50	84.1	84.1	86.4	55	66.2	1	3	112	0.00	30.089 
09:55	84.5	84.5	86.0	51	64.4	2	5	270	0.00	30.089 
10:00	84.7	84.7	86.3	51	64.5	2	3	90	0.00	30.088 
10:05	84.9	84.9	86.3	50	64.2	1	4	338	0.00	30.088 
10:10	84.9	84.9	86.3	50	64.2	2	4	112	0.00	30.089 
10:15	85.3	85.3	86.9	50	64.5	1	4	90	0.00	30.088 
10:20	85.3	85.3	85.2	43	60.2	1	4	248	0.00	30.088 
10:25	85.1	85.1	85.4	45	61.3	2	3	248	0.00	30.088 
10:30	85.3	85.3	85.9	46	62.1	1	4	22	0.00	30.088 
10:35	85.7	85.7	86.9	48	63.7	1	3	90	0.00	30.086 
10:40	85.7	85.7	86.4	46	62.5	1	3	90	0.00	30.085 
10:45	85.9	85.9	86.0	43	60.8	1	3	270	0.00	30.081 
10:50	86.1	86.1	86.0	42	60.3	1	4	270	0.00	30.081 
10:55	86.1	86.1	85.4	39	58.2	1	5	68	0.00	30.081 
11:00	86.3	86.3	85.8	40	59.1	1	3	248	0.00	30.079 
11:05	86.7	86.7	85.6	37	57.3	1	3	248	0.00	30.079 
11:10	87.2	87.2	86.0	36	57.0	1	3	248	0.00	30.081 
11:15	87.2	87.2	86.0	36	57.0	2	4	68	0.00	30.080 
11:20	87.0	87.0	85.8	36	56.8	1	4	248	0.00	30.079 
11:25	87.0	87.0	86.0	37	57.5	1	3	248	0.00	30.077 
11:30	86.7	86.7	86.3	40	59.5	2	5	90	0.00	30.076 
11:35	86.5	86.5	85.6	38	57.8	2	5	112	0.00	30.075 
11:40	86.5	86.5	85.4	37	57.1	1	3	90	0.00	30.074 
11:45	87.0	87.0	86.0	37	57.5	1	3	90	0.00	30.073 
11:50	87.4	87.4	86.9	39	59.4	1	3	22	0.00	30.072 
11:55	87.8	87.8	86.9	37	58.2	1	3	90	0.00	30.067 
12:00	87.8	87.8	86.9	37	58.2	2	4	90	0.00	30.066 
12:05	88.0	88.0	86.7	35	56.9	1	3	112	0.00	30.064 
12:10	88.4	88.4	87.4	36	58.0	1	2	112	0.00	30.062 
12:15	88.8	88.8	87.4	34	56.8	1	2	112	0.00	30.059 
12:20	88.8	88.8	87.2	33	55.9	1	4	248	0.00	30.058 
12:25	88.8	88.8	86.8	31	54.2	1	3	112	0.00	30.059 
12:30	88.6	88.6	86.7	32	54.9	1	5	112	0.00	30.058 
12:35	88.0	88.0	86.9	36	57.7	1	3	90	0.00	30.057 
12:40	87.4	87.4	86.4	37	57.9	0	1	90	0.00	30.056 
12:45	87.0	87.0	85.6	35	56.0	1	6	90	0.00	30.055 
12:50	87.4	87.4	86.2	36	57.1	1	4	112	0.00	30.051 
12:55	88.2	88.2	86.7	34	56.2	2	6	112	0.00	30.048 
13:00	88.2	88.2	86.5	33	55.4	1	3	68	0.00	30.047 
13:05	87.0	87.0	85.4	34	55.2	1	4	270	0.00	30.050 
13:10	86.3	86.3	85.0	36	56.2	0	2	270	0.00	30.049 
13:15	86.3	86.3	84.8	35	55.4	1	4	270	0.00	30.048 
13:20	86.5	86.5	85.0	35	55.6	1	5	90	0.00	30.047 
13:25	87.4	87.4	86.0	35	56.3	1	3	270	0.00	30.047 
13:30	88.2	88.2	87.6	38	59.3	1	4	270	0.00	30.045 
13:35	88.6	88.6	87.2	34	56.6	2	4	292	0.00	30.044 
13:40	88.8	88.8	87.6	35	57.6	2	4	90	0.00	30.044 
13:45	88.6	88.6	87.0	33	55.8	2	6	68	0.00	30.042 
13:50	88.4	88.4	86.7	33	55.6	1	3	270	0.00	30.036 
13:55	88.6	88.6	87.0	33	55.8	1	3	270	0.00	30.033 
14:00	89.0	89.0	87.2	32	55.3	2	5	90	0.00	30.030 
14:05	89.3	89.3	88.0	34	57.2	2	5	90	0.00	30.030 
14:10	89.7	89.7	89.3	37	59.9	2	6	90	0.00	30.028 
14:15	89.7	89.7	87.8	31	55.0	1	4	112	0.00	30.028 
14:20	89.3	89.3	88.0	34	57.2	1	4	112	0.00	30.028 
14:25	89.0	89.0	87.0	31	54.4	1	3	112	0.00	30.025 
14:30	89.3	89.3	87.3	31	54.7	1	4	112	0.00	30.026 
14:35	89.5	89.5	87.6	31	54.8	2	6	90	0.00	30.021 
14:40	89.5	89.5	87.2	29	53.0	2	5	270	0.00	30.020 
14:45	89.7	89.7	87.6	30	54.1	2	5	112	0.00	30.018 
14:50	89.9	89.9	87.6	29	53.3	2	6	248	0.00	30.017 
14:55	89.7	89.7	87.4	29	53.2	1	4	68	0.00	30.016 
15:00	89.9	89.9	87.8	30	54.3	1	4	270	0.00	30.015 
15:05	89.7	89.7	87.0	27	51.2	2	4	270	0.00	30.016 
15:10	89.0	89.0	86.6	29	52.6	2	5	248	0.00	30.016 
15:15	88.6	88.6	86.6	31	54.1	1	3	292	0.00	30.014 
15:20	88.6	88.6	86.0	28	51.3	1	4	270	0.00	30.014 
15:25	88.8	88.8	86.1	27	50.5	1	4	270	0.00	30.014 
15:30	89.0	89.0	87.0	31	54.4	1	3	270	0.00	30.010 
15:35	89.0	89.0	86.4	28	51.6	1	3	90	0.00	30.011 
15:40	88.8	88.8	86.6	30	53.3	0	2	270	0.00	30.008 
15:45	89.0	89.0	87.0	31	54.4	1	3	248	0.00	30.005 
15:50	89.0	89.0	86.4	28	51.6	1	3	270	0.00	30.005 
15:55	88.8	88.8	86.2	28	51.4	1	4	270	0.00	30.003 
16:00	88.2	88.2	85.8	29	51.9	1	3	270	0.00	30.003 
16:05	88.0	88.0	86.5	34	56.1	0	2	270	0.00	30.005 
16:10	87.6	87.6	85.5	31	53.2	0	2	270	0.00	30.005 
16:15	87.4	87.4	85.0	29	51.2	1	3	248	0.00	30.004 
16:20	87.2	87.2	85.4	33	54.6	0	1	135	0.00	30.004 
16:25	87.2	87.2	85.4	33	54.6	0	1	135	0.00	30.004 
16:30	87.0	87.0	85.0	32	53.5	0	1	135	0.00	30.004 
16:35	86.7	86.7	84.9	33	54.1	0	1	135	0.00	30.004 
16:40	86.5	86.5	84.7	33	53.9	1	5	270	0.00	30.004 
16:45	86.1	86.1	84.6	35	55.2	0	1	248	0.00	30.005 
16:50	85.9	85.9	84.4	35	55.0	0	2	248	0.00	30.005 
16:55	85.7	85.7	84.4	36	55.6	0	1	248	0.00	30.004 
17:00	85.5	85.5	84.2	36	55.5	0	3	248	0.00	30.005 
17:05	85.3	85.3	84.0	36	55.3	1	5	248	0.00	30.009 
17:10	84.5	84.5	84.0	41	58.2	3	11	112	0.00	30.019 
17:15	82.0	82.0	82.6	49	60.9	4	9	90	0.00	30.028 
17:20	79.4	79.4	80.7	55	61.8	4	8	90	0.00	30.040 
17:25	77.7	77.7	79.3	58	61.7	4	10	90	0.00	30.045 
17:30	76.3	76.3	78.1	66	64.1	2	5	90	0.01	30.044 
17:35	74.7	74.7	74.7	69	63.8	2	4	90	0.00	30.040 
17:40	74.0	74.0	74.0	72	64.4	0	2	90	0.00	30.034 
17:45	73.7	73.7	73.7	72	64.1	0	2	90	0.00	30.030 
17:50	73.5	73.5	73.5	72	63.9	0	0	---	0.00	30.027 
17:55	73.7	73.7	73.7	71	63.7	0	1	90	0.00	30.026 
18:00	73.7	73.7	73.7	69	62.9	0	0	---	0.00	30.024 
18:05	74.2	74.2	74.2	69	63.4	0	1	90	0.00	30.019 
18:10	74.4	74.4	74.4	69	63.5	0	0	---	0.00	30.016 
18:15	74.6	74.6	74.6	69	63.7	0	0	---	0.00	30.010 
18:20	74.6	74.6	74.6	70	64.2	0	0	---	0.00	30.007 
18:25	74.6	74.6	74.6	69	63.7	0	0	---	0.00	30.005 
18:30	74.9	74.9	74.9	70	64.4	0	0	---	0.00	30.005 
18:35	75.1	75.1	76.9	68	63.8	0	0	---	0.00	30.005 
18:40	75.3	75.3	77.1	68	64.0	0	0	---	0.00	30.004 
18:45	75.3	75.3	77.2	66	63.1	0	0	---	0.00	30.004 
18:50	75.3	75.3	77.2	67	63.6	0	0	---	0.00	30.003 
18:55	75.3	75.3	77.2	67	63.6	0	0	---	0.00	30.002 
19:00	75.3	75.3	77.2	67	63.6	0	0	---	0.00	30.003 
19:05	75.1	75.1	76.9	68	63.8	0	0	---	0.00	29.997 
19:10	75.1	75.1	76.9	68	63.8	0	0	---	0.00	29.997 
19:15	74.9	74.9	74.9	69	64.0	0	0	---	0.00	29.997 
19:20	74.7	74.7	74.7	70	64.2	0	0	---	0.00	29.997 
19:25	74.4	74.4	74.4	70	64.0	0	0	---	0.00	29.994 
19:30	74.2	74.2	74.2	71	64.2	0	0	---	0.00	29.993 
19:35	73.9	73.9	73.9	73	64.7	0	0	---	0.00	29.991 
19:40	73.5	73.5	73.5	74	64.7	0	0	---	0.00	29.993 
19:45	73.2	73.2	73.2	75	64.8	0	0	---	0.00	29.990 
19:50	72.8	72.8	72.8	75	64.4	0	0	---	0.00	29.994 
19:55	72.5	72.5	72.5	76	64.5	0	0	---	0.00	29.991 
20:00	72.0	72.0	72.0	77	64.4	0	0	---	0.00	29.990 
20:05	71.6	71.6	71.6	78	64.4	0	0	---	0.00	29.988 
20:10	71.3	71.3	71.3	79	64.4	0	0	---	0.00	29.990 
20:15	70.9	70.9	70.9	81	64.8	0	0	---	0.00	29.993 
20:20	70.8	70.8	70.8	81	64.7	0	0	---	0.00	29.993 
20:25	70.4	70.4	70.4	82	64.6	0	0	---	0.00	29.993 
20:30	70.3	70.3	70.3	83	64.9	0	1	90	0.00	29.996 
20:35	69.9	69.9	69.9	83	64.5	0	0	---	0.00	29.997 
20:40	69.8	69.8	69.8	84	64.7	0	0	---	0.00	29.998 
20:45	69.6	69.6	69.6	85	64.9	0	0	---	0.00	29.998 
20:50	69.4	69.4	69.4	86	65.0	0	0	---	0.00	29.998 
20:55	69.1	69.1	69.1	88	65.4	0	0	---	0.00	29.999 
21:00	69.1	69.1	69.1	88	65.4	0	1	90	0.00	30.000 
21:05	68.9	68.9	68.9	88	65.2	0	0	---	0.00	29.998 
21:10	68.6	68.6	68.6	89	65.2	0	0	---	0.00	30.001 
21:15	68.4	68.4	68.4	90	65.3	0	0	---	0.00	30.006 
21:20	68.4	68.4	68.4	90	65.3	0	0	---	0.00	30.008 
21:25	68.4	68.4	68.4	91	65.7	0	0	---	0.00	30.009 
21:30	68.1	68.1	68.1	91	65.4	0	0	---	0.00	30.010 
21:35	67.9	67.9	67.9	91	65.2	0	0	---	0.00	30.012 
21:40	67.9	67.9	67.9	92	65.5	0	0	---	0.00	30.013 
21:45	67.8	67.8	67.8	92	65.4	0	0	---	0.00	30.014 
21:50	67.4	67.4	67.4	92	65.0	0	0	---	0.00	30.015 
21:55	67.3	67.3	67.3	92	64.9	0	0	---	0.00	30.017 
22:00	67.1	67.1	67.1	92	64.7	0	0	---	0.00	30.018 
22:05	66.8	66.8	66.8	92	64.4	0	0	---	0.00	30.021 
22:10	66.6	66.6	66.6	92	64.2	0	0	---	0.00	30.023 
22:15	66.4	66.4	66.4	92	64.0	0	0	---	0.00	30.025 
22:20	66.3	66.3	66.3	92	63.9	0	0	---	0.00	30.024 
22:25	66.1	66.1	66.1	92	63.7	0	0	---	0.00	30.027 
22:30	66.0	66.0	66.0	92	63.6	0	0	---	0.00	30.029 
22:35	65.6	65.6	65.6	92	63.2	0	0	---	0.00	30.030 
22:40	65.5	65.5	65.5	92	63.1	0	0	---	0.00	30.030 
22:45	65.3	65.3	65.3	92	62.9	0	0	---	0.00	30.031 
22:50	65.2	65.2	65.2	93	63.1	0	0	---	0.00	30.032 
22:55	65.2	65.2	65.2	93	63.1	0	0	---	0.00	30.031 
23:00	65.2	65.2	65.2	94	63.4	0	0	---	0.00	30.032 
23:05	65.2	65.2	65.2	94	63.4	0	0	---	0.00	30.029 
23:10	65.2	65.2	65.2	94	63.4	0	0	---	0.00	30.029 
23:15	65.2	65.2	65.2	94	63.4	0	0	---	0.00	30.029 
23:20	65.2	65.2	65.2	95	63.7	0	0	---	0.00	30.028 
23:25	65.2	65.2	65.2	95	63.7	0	0	---	0.00	30.029 
23:30	65.0	65.0	65.0	95	63.5	0	0	---	0.00	30.030 
23:35	64.8	64.8	64.8	95	63.3	0	0	---	0.00	30.031 
23:40	64.5	64.5	64.5	95	63.0	0	0	---	0.00	30.031 
23:45	64.5	64.5	64.5	95	63.0	0	0	---	0.00	30.031 
23:50	64.3	64.3	64.3	95	62.8	0	0	---	0.00	30.032 
23:55	64.3	64.3	64.3	95	62.8	0	0	---	0.00	30.032 

CoCoRaHS
IN-AL-39
A2 Web Hosting
Creative Commons License
GoDaddy
Look for:

loaded 2017-10-17 09:31:55 • last modified 2010-11-18 10:43:29
Privacy PolicyDisclaimer
• wx.awcolley.com is powered by PmWiki v.2002016 •
• all content (unless otherwise noted) © 2017 A W Colley